createdAt,value
2017-08-13T00:01:28.108Z,14.20
2017-08-13T00:03:55.711Z,14.20
2017-08-13T00:06:23.312Z,14.20
2017-08-13T00:08:50.874Z,14.20
2017-08-13T00:11:18.745Z,14.30
2017-08-13T00:13:46.323Z,14.30
2017-08-13T00:16:13.943Z,14.30
2017-08-13T00:18:41.550Z,14.30
2017-08-13T00:21:09.231Z,14.30
2017-08-13T00:23:36.830Z,14.30
2017-08-13T00:26:04.426Z,14.30
2017-08-13T00:28:32.003Z,14.30
2017-08-13T00:31:00.358Z,14.20
2017-08-13T00:33:27.951Z,14.20
2017-08-13T00:35:55.527Z,14.20
2017-08-13T00:38:23.409Z,14.20
2017-08-13T00:40:50.985Z,14.10
2017-08-13T00:43:18.568Z,14.10
2017-08-13T00:45:46.137Z,14.10
2017-08-13T00:48:14.471Z,14.10
2017-08-13T00:50:42.068Z,14.10
2017-08-13T00:53:10.407Z,14.00
2017-08-13T00:55:37.996Z,14.10
2017-08-13T00:58:05.575Z,14.00
2017-08-13T01:00:33.934Z,14.00
2017-08-13T01:03:01.693Z,14.00
2017-08-13T01:05:29.287Z,14.00
2017-08-13T01:07:56.873Z,14.10
2017-08-13T01:10:24.768Z,14.10
2017-08-13T01:12:52.374Z,14.10
2017-08-13T01:15:19.966Z,14.10
2017-08-13T01:17:47.562Z,14.10
2017-08-13T01:20:15.147Z,14.10
2017-08-13T01:22:43.504Z,14.10
2017-08-13T01:25:11.085Z,14.10
2017-08-13T01:27:39.457Z,14.10
2017-08-13T01:30:07.804Z,14.20
2017-08-13T01:32:35.667Z,14.10
2017-08-13T01:35:03.249Z,14.20
2017-08-13T01:37:31.604Z,14.20
2017-08-13T01:39:59.196Z,14.20
2017-08-13T01:42:26.768Z,14.20
2017-08-13T01:44:54.371Z,14.20
2017-08-13T01:47:21.946Z,14.20
2017-08-13T01:49:49.543Z,14.20
2017-08-13T01:52:17.130Z,14.20
2017-08-13T01:54:45.016Z,14.20
2017-08-13T01:57:12.598Z,14.20
2017-08-13T01:59:40.191Z,14.20
2017-08-13T02:02:07.801Z,14.20
2017-08-13T02:04:35.378Z,14.20
2017-08-13T02:07:02.988Z,14.20
2017-08-13T02:09:30.578Z,14.30
2017-08-13T02:11:58.172Z,14.30
2017-08-13T02:14:26.497Z,14.30
2017-08-13T02:16:54.104Z,14.30
2017-08-13T02:19:22.455Z,14.40
2017-08-13T02:21:50.436Z,14.40
2017-08-13T02:24:18.012Z,14.40
2017-08-13T02:26:46.369Z,14.40
2017-08-13T02:29:13.955Z,14.40
2017-08-13T02:31:42.277Z,14.40
2017-08-13T02:34:09.863Z,14.40
2017-08-13T02:36:37.449Z,14.50
2017-08-13T02:39:05.817Z,14.50
2017-08-13T02:41:34.210Z,14.50
2017-08-13T02:44:02.936Z,14.50
2017-08-13T02:46:30.506Z,14.60
2017-08-13T02:48:58.087Z,14.60
2017-08-13T02:51:25.681Z,14.60
2017-08-13T02:53:53.276Z,14.60
2017-08-13T02:56:20.862Z,14.60
2017-08-13T02:58:48.449Z,14.60
2017-08-13T03:01:16.061Z,14.70
2017-08-13T03:03:43.649Z,14.70
2017-08-13T03:06:11.603Z,14.70
2017-08-13T03:08:39.179Z,14.70
2017-08-13T03:11:07.521Z,14.70
2017-08-13T03:13:35.116Z,14.70
2017-08-13T03:16:03.467Z,14.70
2017-08-13T03:18:31.056Z,14.70
2017-08-13T03:20:58.651Z,14.70
2017-08-13T03:23:26.246Z,14.70
2017-08-13T03:25:53.835Z,14.80
2017-08-13T03:28:21.771Z,14.80
2017-08-13T03:30:49.363Z,14.80
2017-08-13T03:33:16.948Z,14.70
2017-08-13T03:35:44.536Z,14.70
2017-08-13T03:38:12.113Z,14.70
2017-08-13T03:40:39.708Z,14.70
2017-08-13T03:43:08.052Z,14.70
2017-08-13T03:45:35.639Z,14.70
2017-08-13T03:48:03.221Z,14.80
2017-08-13T03:50:30.794Z,14.80
2017-08-13T03:52:58.368Z,14.80
2017-08-13T03:55:25.960Z,14.80
2017-08-13T03:57:53.554Z,14.80
2017-08-13T04:00:22.209Z,14.90
2017-08-13T04:02:50.567Z,14.90
2017-08-13T04:05:18.138Z,14.90
2017-08-13T04:07:45.734Z,14.90
2017-08-13T04:10:13.321Z,14.90
2017-08-13T04:12:40.911Z,14.90
2017-08-13T04:15:08.492Z,14.90
2017-08-13T04:17:36.849Z,14.90
2017-08-13T04:20:04.433Z,14.90
2017-08-13T04:22:32.797Z,14.90
2017-08-13T04:25:00.375Z,14.90
2017-08-13T04:27:28.410Z,14.90
2017-08-13T04:29:56.002Z,15.00
2017-08-13T04:32:24.353Z,15.00
2017-08-13T04:34:51.953Z,15.00
2017-08-13T04:37:19.530Z,15.00
2017-08-13T04:39:47.160Z,15.00
2017-08-13T04:42:14.792Z,15.00
2017-08-13T04:44:42.385Z,15.00
2017-08-13T04:47:09.970Z,15.00
2017-08-13T04:49:37.871Z,15.10
2017-08-13T04:52:05.451Z,15.10
2017-08-13T04:54:33.033Z,15.10
2017-08-13T04:57:00.630Z,15.20
2017-08-13T04:59:28.225Z,15.20
2017-08-13T05:01:56.598Z,15.20
2017-08-13T05:04:24.946Z,15.30
2017-08-13T05:06:52.540Z,15.20
2017-08-13T05:09:20.936Z,15.30
2017-08-13T05:11:48.523Z,15.30
2017-08-13T05:14:16.107Z,15.30
2017-08-13T05:16:44.034Z,15.30
2017-08-13T05:19:11.617Z,15.30
2017-08-13T05:21:39.201Z,15.30
2017-08-13T05:24:06.820Z,15.30
2017-08-13T05:26:34.400Z,15.30
2017-08-13T05:29:02.004Z,15.40
2017-08-13T05:31:30.346Z,15.40
2017-08-13T05:33:57.931Z,15.40
2017-08-13T05:36:25.511Z,15.40
2017-08-13T05:38:53.179Z,15.50
2017-08-13T05:41:20.779Z,15.50
2017-08-13T05:43:48.366Z,15.50
2017-08-13T05:46:15.950Z,15.60
2017-08-13T05:48:43.547Z,15.60
2017-08-13T05:51:11.146Z,15.60
2017-08-13T05:53:38.724Z,15.70
2017-08-13T05:56:06.327Z,15.70
2017-08-13T05:58:33.902Z,15.80
2017-08-13T06:01:01.488Z,15.80
2017-08-13T06:03:29.057Z,15.90
2017-08-13T06:05:56.872Z,16.00
2017-08-13T06:08:24.443Z,16.00
2017-08-13T06:10:52.332Z,16.10
2017-08-13T06:13:19.924Z,16.20
2017-08-13T06:15:47.488Z,16.20
2017-08-13T06:18:15.098Z,16.30
2017-08-13T06:20:42.669Z,16.40
2017-08-13T06:23:10.256Z,16.40
2017-08-13T06:25:38.608Z,16.50
2017-08-13T06:28:06.186Z,16.50
2017-08-13T06:30:34.530Z,16.70
2017-08-13T06:33:02.528Z,16.60
2017-08-13T06:35:30.180Z,16.80
2017-08-13T06:37:57.778Z,16.80
2017-08-13T06:40:25.355Z,16.90
2017-08-13T06:42:53.007Z,17.00
2017-08-13T06:45:20.593Z,17.00
2017-08-13T06:47:48.172Z,17.10
2017-08-13T06:50:15.783Z,17.10
2017-08-13T06:52:43.359Z,17.10
2017-08-13T06:55:10.948Z,17.10
2017-08-13T06:57:38.565Z,17.10
2017-08-13T07:00:06.154Z,17.10
2017-08-13T07:02:33.717Z,17.10
2017-08-13T07:05:01.321Z,17.00
2017-08-13T07:07:28.904Z,17.00
2017-08-13T07:09:56.741Z,16.90
2017-08-13T07:12:25.093Z,16.90
2017-08-13T07:14:52.673Z,16.90
2017-08-13T07:17:20.255Z,16.90
2017-08-13T07:19:47.827Z,16.90
2017-08-13T07:22:15.420Z,17.00
2017-08-13T07:24:43.011Z,17.00
2017-08-13T07:27:10.589Z,17.10
2017-08-13T07:29:38.173Z,17.10
2017-08-13T07:32:05.783Z,17.10
2017-08-13T07:34:33.377Z,17.10
2017-08-13T07:37:00.966Z,17.00
2017-08-13T07:39:28.523Z,17.00
2017-08-13T07:41:56.391Z,17.10
2017-08-13T07:44:23.961Z,17.30
2017-08-13T07:46:51.552Z,17.40
2017-08-13T07:49:19.921Z,17.50
2017-08-13T07:51:47.541Z,17.40
2017-08-13T07:54:15.167Z,17.50
2017-08-13T07:56:42.747Z,17.50
2017-08-13T07:59:10.334Z,17.60
2017-08-13T08:01:37.930Z,17.70
2017-08-13T08:04:05.796Z,17.70
2017-08-13T08:06:34.137Z,17.70
2017-08-13T08:09:01.720Z,17.70
2017-08-13T08:11:30.084Z,17.90
2017-08-13T08:13:57.678Z,17.90
2017-08-13T08:16:25.261Z,18.00
2017-08-13T08:18:52.819Z,18.10
2017-08-13T08:21:20.380Z,18.20
2017-08-13T08:23:47.966Z,18.30
2017-08-13T08:26:15.588Z,18.40
2017-08-13T08:28:43.184Z,18.50
2017-08-13T08:31:11.104Z,18.50
2017-08-13T08:33:38.690Z,18.60
2017-08-13T08:36:06.273Z,18.60
2017-08-13T08:38:33.887Z,18.70
2017-08-13T08:41:01.464Z,18.70
2017-08-13T08:43:29.056Z,18.80
2017-08-13T08:45:56.635Z,18.80
2017-08-13T08:48:24.995Z,18.90
2017-08-13T08:50:52.603Z,18.80
2017-08-13T08:53:20.526Z,18.90
2017-08-13T08:55:48.089Z,18.90
2017-08-13T08:58:15.806Z,19.00
2017-08-13T09:00:43.379Z,19.10
2017-08-13T09:03:10.984Z,19.20
2017-08-13T09:05:38.588Z,19.20
2017-08-13T09:08:06.155Z,19.40
2017-08-13T09:10:33.718Z,19.40
2017-08-13T09:13:01.359Z,19.50
2017-08-13T09:15:29.368Z,19.60
2017-08-13T09:17:56.954Z,19.70
2017-08-13T09:20:25.287Z,19.60
2017-08-13T09:22:52.903Z,19.60
2017-08-13T09:25:20.484Z,19.70
2017-08-13T09:27:48.067Z,19.80
2017-08-13T09:30:15.630Z,19.80
2017-08-13T09:32:43.206Z,19.90
2017-08-13T09:35:10.787Z,19.90
2017-08-13T09:37:39.131Z,20.10
2017-08-13T09:40:06.715Z,20.10
2017-08-13T09:42:34.290Z,20.10
2017-08-13T09:45:01.859Z,20.20
2017-08-13T09:47:29.706Z,20.30
2017-08-13T09:49:57.283Z,20.40
2017-08-13T09:52:24.861Z,20.40
2017-08-13T09:54:52.456Z,20.50
2017-08-13T09:57:20.023Z,20.60
2017-08-13T09:59:47.602Z,20.80
2017-08-13T10:02:15.181Z,20.90
2017-08-13T10:04:42.773Z,21.00
2017-08-13T10:07:10.353Z,21.00
2017-08-13T10:09:37.945Z,21.00
2017-08-13T10:12:05.522Z,21.00
2017-08-13T10:14:33.432Z,21.10
2017-08-13T10:17:01.020Z,21.20
2017-08-13T10:19:29.388Z,21.40
2017-08-13T10:21:57.763Z,21.60
2017-08-13T10:24:26.123Z,21.80
2017-08-13T10:26:53.786Z,21.70
2017-08-13T10:29:21.433Z,21.80
2017-08-13T10:31:49.028Z,21.90
2017-08-13T10:34:16.593Z,22.00
2017-08-13T10:36:45.244Z,22.00
2017-08-13T10:39:12.810Z,22.00
2017-08-13T10:41:40.374Z,21.90
2017-08-13T10:44:07.957Z,21.80
2017-08-13T10:46:35.531Z,21.90
2017-08-13T10:49:03.113Z,22.10
2017-08-13T10:51:30.689Z,22.30
2017-08-13T10:53:58.644Z,22.50
2017-08-13T10:56:26.203Z,22.60
2017-08-13T10:58:53.783Z,22.70
2017-08-13T11:01:21.365Z,22.70
2017-08-13T11:03:49.712Z,22.40
2017-08-13T11:06:17.312Z,22.40
2017-08-13T11:08:44.892Z,22.30
2017-08-13T11:11:12.489Z,22.20
2017-08-13T11:13:40.048Z,22.20
2017-08-13T11:16:07.669Z,22.20
2017-08-13T11:18:35.232Z,22.00
2017-08-13T11:21:03.084Z,22.00
2017-08-13T11:23:30.655Z,22.10
2017-08-13T11:25:58.239Z,22.20
2017-08-13T11:28:25.812Z,22.30
2017-08-13T11:30:53.436Z,22.60
2017-08-13T11:33:21.035Z,22.90
2017-08-13T11:35:48.614Z,23.20
2017-08-13T11:38:16.190Z,23.40
2017-08-13T11:40:43.775Z,23.40
2017-08-13T11:43:11.746Z,23.30
2017-08-13T11:45:39.319Z,23.40
2017-08-13T11:48:07.638Z,23.10
2017-08-13T11:50:35.247Z,23.10
2017-08-13T11:53:02.975Z,23.10
2017-08-13T11:55:30.561Z,23.10
2017-08-13T11:57:58.132Z,23.10
2017-08-13T12:00:25.711Z,23.20
2017-08-13T12:02:53.302Z,23.50
2017-08-13T12:05:20.884Z,23.80
2017-08-13T12:07:48.454Z,24.00
2017-08-13T12:10:17.126Z,24.30
2017-08-13T12:12:44.687Z,24.30
2017-08-13T12:15:12.262Z,24.50
2017-08-13T12:17:40.625Z,24.70
2017-08-13T12:20:08.202Z,24.70
2017-08-13T12:22:35.771Z,24.90
2017-08-13T12:25:04.109Z,25.10
2017-08-13T12:27:31.686Z,25.10
2017-08-13T12:29:59.273Z,25.10
2017-08-13T12:32:26.874Z,25.20
2017-08-13T12:34:54.438Z,25.20
2017-08-13T12:37:22.003Z,25.00
2017-08-13T12:39:49.606Z,24.90
2017-08-13T12:42:17.172Z,24.80
2017-08-13T12:44:44.758Z,24.80
2017-08-13T12:47:12.358Z,24.90
2017-08-13T12:49:39.933Z,25.00
2017-08-13T12:52:08.283Z,24.70
2017-08-13T12:54:35.868Z,24.60
2017-08-13T12:57:04.199Z,24.20
2017-08-13T12:59:32.065Z,24.20
2017-08-13T13:01:59.667Z,24.30
2017-08-13T13:04:27.249Z,24.40
2017-08-13T13:06:54.855Z,24.70
2017-08-13T13:09:22.439Z,24.90
2017-08-13T13:11:50.025Z,24.90
2017-08-13T13:14:17.675Z,24.90
2017-08-13T13:16:46.010Z,25.10
2017-08-13T13:19:13.578Z,25.10
2017-08-13T13:21:41.443Z,25.00
2017-08-13T13:24:09.045Z,24.70
2017-08-13T13:26:37.382Z,24.20
2017-08-13T13:29:04.977Z,24.20
2017-08-13T13:31:33.322Z,24.10
2017-08-13T13:34:00.920Z,24.10
2017-08-13T13:36:28.505Z,24.10
2017-08-13T13:38:56.415Z,24.40
2017-08-13T13:41:23.988Z,24.80
2017-08-13T13:43:51.566Z,24.70
2017-08-13T13:46:19.145Z,24.90
2017-08-13T13:48:46.705Z,25.10
2017-08-13T13:51:14.313Z,25.40
2017-08-13T13:53:41.893Z,25.50
2017-08-13T13:56:10.237Z,25.50
2017-08-13T13:58:37.813Z,25.40
2017-08-13T14:01:05.415Z,25.80
2017-08-13T14:03:32.975Z,26.00
2017-08-13T14:06:00.874Z,26.20
2017-08-13T14:08:28.464Z,26.60
2017-08-13T14:10:56.801Z,26.50
2017-08-13T14:13:24.427Z,26.50
2017-08-13T14:15:52.004Z,26.40
2017-08-13T14:18:19.597Z,26.10
2017-08-13T14:20:47.188Z,25.90
2017-08-13T14:23:15.519Z,25.80
2017-08-13T14:25:43.107Z,25.70
2017-08-13T14:28:11.484Z,25.90
2017-08-13T14:30:39.074Z,25.90
2017-08-13T14:33:06.985Z,26.20
2017-08-13T14:35:34.572Z,26.60
2017-08-13T14:38:02.910Z,27.10
2017-08-13T14:40:30.501Z,27.10
2017-08-13T14:42:58.081Z,27.30
2017-08-13T14:45:25.820Z,27.80
2017-08-13T14:47:53.399Z,28.80
2017-08-13T14:50:21.801Z,30.90
2017-08-13T14:52:49.380Z,30.80
2017-08-13T14:55:16.979Z,32.20
2017-08-13T14:57:44.576Z,33.80
2017-08-13T15:00:12.472Z,35.20
2017-08-13T15:02:40.045Z,36.40
2017-08-13T15:05:07.636Z,36.30
2017-08-13T15:07:35.223Z,36.90
2017-08-13T15:10:02.794Z,37.90
2017-08-13T15:12:30.379Z,39.70
2017-08-13T15:14:57.944Z,41.10
2017-08-13T15:17:25.524Z,42.10
2017-08-13T15:19:53.140Z,42.80
2017-08-13T15:22:20.723Z,43.30
2017-08-13T15:24:48.359Z,43.80
2017-08-13T15:27:16.243Z,43.80
2017-08-13T15:29:43.821Z,43.30
2017-08-13T15:32:11.395Z,43.10
2017-08-13T15:34:38.979Z,42.40
2017-08-13T15:37:06.557Z,42.40
2017-08-13T15:39:34.129Z,41.20
2017-08-13T15:42:02.577Z,40.70
2017-08-13T15:44:30.170Z,41.30
2017-08-13T15:46:57.739Z,42.10
2017-08-13T15:49:25.320Z,42.30
2017-08-13T15:51:52.897Z,42.40
2017-08-13T15:54:21.536Z,42.20
2017-08-13T15:56:49.129Z,42.20
2017-08-13T15:59:17.459Z,38.10
2017-08-13T16:01:45.046Z,38.10
2017-08-13T16:04:12.628Z,36.90
2017-08-13T16:06:40.976Z,38.20
2017-08-13T16:09:08.570Z,38.20
2017-08-13T16:11:36.174Z,38.80
2017-08-13T16:14:03.767Z,39.40
2017-08-13T16:16:31.351Z,39.90
2017-08-13T16:18:58.931Z,40.40
2017-08-13T16:21:26.517Z,40.70
2017-08-13T16:23:54.086Z,39.60
2017-08-13T16:26:21.957Z,37.70
2017-08-13T16:28:49.542Z,36.10
2017-08-13T16:31:17.909Z,33.10
2017-08-13T16:33:45.520Z,33.00
2017-08-13T16:36:13.107Z,32.00
2017-08-13T16:38:40.713Z,30.90
2017-08-13T16:41:09.052Z,29.10
2017-08-13T16:43:36.656Z,29.10
2017-08-13T16:46:04.234Z,28.30
2017-08-13T16:48:32.127Z,27.60
2017-08-13T16:50:59.709Z,27.10
2017-08-13T16:53:27.298Z,26.60
2017-08-13T16:55:55.681Z,26.00
2017-08-13T16:58:23.239Z,26.00
2017-08-13T17:00:50.847Z,25.80
2017-08-13T17:03:18.437Z,25.70
2017-08-13T17:05:46.786Z,25.50
2017-08-13T17:08:14.379Z,25.50
2017-08-13T17:10:41.970Z,25.40
2017-08-13T17:13:09.909Z,25.30
2017-08-13T17:15:37.510Z,25.20
2017-08-13T17:18:05.112Z,25.10
2017-08-13T17:20:33.774Z,24.90
2017-08-13T17:23:02.209Z,24.90
2017-08-13T17:25:29.829Z,24.90
2017-08-13T17:27:58.228Z,24.80
2017-08-13T17:30:25.839Z,24.80
2017-08-13T17:32:53.463Z,24.70
2017-08-13T17:35:21.169Z,24.60
2017-08-13T17:37:48.774Z,24.60
2017-08-13T17:40:17.169Z,24.30
2017-08-13T17:42:44.830Z,24.30
2017-08-13T17:45:12.457Z,24.20
2017-08-13T17:47:40.863Z,24.00
2017-08-13T17:50:08.463Z,23.90
2017-08-13T17:52:36.408Z,23.90
2017-08-13T17:55:04.015Z,23.70
2017-08-13T17:57:31.628Z,23.60
2017-08-13T17:59:59.326Z,23.50
2017-08-13T18:02:26.951Z,23.40
2017-08-13T18:04:54.611Z,23.20
2017-08-13T18:07:22.214Z,23.20
2017-08-13T18:09:49.815Z,23.10
2017-08-13T18:12:17.403Z,23.00
2017-08-13T18:14:45.300Z,22.90
2017-08-13T18:17:12.889Z,22.90
2017-08-13T18:19:41.225Z,22.70
2017-08-13T18:22:08.827Z,22.60
2017-08-13T18:24:37.207Z,22.50
2017-08-13T18:27:04.840Z,22.50
2017-08-13T18:29:32.431Z,22.40
2017-08-13T18:32:00.021Z,22.40
2017-08-13T18:34:27.683Z,22.30
2017-08-13T18:36:55.276Z,22.20
2017-08-13T18:39:22.854Z,22.10
2017-08-13T18:41:51.517Z,21.90
2017-08-13T18:44:19.121Z,21.90
2017-08-13T18:46:46.687Z,21.80
2017-08-13T18:49:14.269Z,21.80
2017-08-13T18:51:41.843Z,21.70
2017-08-13T18:54:09.448Z,21.60
2017-08-13T18:56:37.024Z,21.50
2017-08-13T18:59:04.624Z,21.40
2017-08-13T19:01:32.185Z,21.30
2017-08-13T19:03:59.774Z,21.30
2017-08-13T19:06:27.388Z,21.30
2017-08-13T19:08:55.021Z,21.20
2017-08-13T19:11:22.614Z,21.20
2017-08-13T19:13:50.492Z,21.10
2017-08-13T19:16:18.113Z,21.10
2017-08-13T19:18:45.674Z,21.10
2017-08-13T19:21:16.604Z,21.00
2017-08-13T19:23:44.396Z,21.00
2017-08-13T19:26:12.867Z,21.00
2017-08-13T19:28:40.510Z,20.90
2017-08-13T19:31:08.416Z,20.90
2017-08-13T19:33:36.194Z,20.90
2017-08-13T19:36:03.944Z,20.80
2017-08-13T19:38:32.218Z,20.80
2017-08-13T19:41:00.495Z,20.70
2017-08-13T19:43:28.486Z,20.60
2017-08-13T19:45:57.089Z,20.40
2017-08-13T19:48:24.679Z,20.40
2017-08-13T19:50:53.059Z,20.30
2017-08-13T19:53:21.435Z,20.20
2017-08-13T19:55:49.037Z,20.20
2017-08-13T19:58:16.659Z,20.20
2017-08-13T20:00:44.265Z,20.20
2017-08-13T20:03:12.173Z,20.10
2017-08-13T20:05:40.152Z,20.00
2017-08-13T20:08:07.871Z,20.00
2017-08-13T20:10:35.532Z,19.90
2017-08-13T20:13:03.418Z,19.90
2017-08-13T20:15:31.064Z,19.90
2017-08-13T20:17:58.726Z,19.90
2017-08-13T20:20:27.197Z,19.80
2017-08-13T20:22:55.570Z,19.70
2017-08-13T20:25:23.466Z,19.70
2017-08-13T20:27:51.239Z,19.70
2017-08-13T20:30:18.968Z,19.60
2017-08-13T20:32:46.949Z,19.60
2017-08-13T20:35:18.365Z,19.50
2017-08-13T20:37:46.159Z,19.40
2017-08-13T20:40:13.957Z,19.40
2017-08-13T20:42:41.626Z,19.40
2017-08-13T20:45:09.204Z,19.30
2017-08-13T20:47:36.794Z,19.30
2017-08-13T20:50:04.386Z,19.30
2017-08-13T20:52:33.018Z,19.20
2017-08-13T20:55:00.620Z,19.10
2017-08-13T20:57:28.963Z,19.00
2017-08-13T20:59:56.553Z,19.00
2017-08-13T21:02:24.144Z,18.90
2017-08-13T21:04:51.726Z,18.90
2017-08-13T21:07:19.408Z,18.90
2017-08-13T21:09:46.997Z,18.90
2017-08-13T21:12:15.357Z,18.90
2017-08-13T21:14:43.232Z,18.90
2017-08-13T21:17:10.810Z,18.80
2017-08-13T21:19:39.155Z,18.70
2017-08-13T21:22:06.758Z,18.70
2017-08-13T21:24:34.331Z,18.60
2017-08-13T21:27:01.948Z,18.50
2017-08-13T21:29:29.519Z,18.50
2017-08-13T21:31:57.111Z,18.50
2017-08-13T21:34:24.710Z,18.40
2017-08-13T21:36:52.667Z,18.40
2017-08-13T21:39:20.254Z,18.40
2017-08-13T21:41:47.840Z,18.40
2017-08-13T21:44:15.418Z,18.40
2017-08-13T21:46:43.022Z,18.30
2017-08-13T21:49:11.394Z,18.20
2017-08-13T21:51:39.742Z,18.20
2017-08-13T21:54:07.623Z,18.20
2017-08-13T21:56:35.187Z,18.10
2017-08-13T21:59:03.546Z,18.10
2017-08-13T22:01:31.129Z,18.00
2017-08-13T22:03:58.830Z,18.10
2017-08-13T22:06:26.432Z,18.00
2017-08-13T22:08:54.020Z,18.00
2017-08-13T22:11:21.639Z,18.00
2017-08-13T22:13:49.202Z,18.00
2017-08-13T22:16:17.118Z,18.00
2017-08-13T22:18:44.722Z,18.00
2017-08-13T22:21:12.289Z,17.90
2017-08-13T22:23:39.870Z,17.80
2017-08-13T22:26:07.434Z,17.70
2017-08-13T22:28:35.033Z,17.60
2017-08-13T22:31:02.628Z,17.60
2017-08-13T22:33:30.284Z,17.60
2017-08-13T22:35:57.863Z,17.60
2017-08-13T22:38:25.810Z,17.70
2017-08-13T22:40:53.436Z,17.70
2017-08-13T22:43:21.011Z,17.70
2017-08-13T22:45:48.604Z,17.70
2017-08-13T22:48:16.210Z,17.70
2017-08-13T22:50:43.801Z,17.60
2017-08-13T22:53:11.372Z,17.60
2017-08-13T22:55:38.975Z,17.60
2017-08-13T22:58:06.575Z,17.50
2017-08-13T23:00:34.169Z,17.50
2017-08-13T23:03:02.721Z,17.40
2017-08-13T23:05:30.578Z,17.40
2017-08-13T23:07:58.137Z,17.40
2017-08-13T23:10:25.703Z,17.30
2017-08-13T23:12:53.293Z,17.30
2017-08-13T23:15:21.639Z,17.30
2017-08-13T23:17:49.256Z,17.20
2017-08-13T23:20:16.830Z,17.20
2017-08-13T23:22:44.710Z,17.20
2017-08-13T23:25:12.359Z,17.20
2017-08-13T23:27:39.936Z,17.10
2017-08-13T23:30:07.508Z,17.00
2017-08-13T23:32:35.089Z,17.00
2017-08-13T23:35:03.467Z,16.90
2017-08-13T23:37:31.827Z,16.90
2017-08-13T23:39:59.416Z,16.90
2017-08-13T23:42:27.762Z,16.90
2017-08-13T23:44:55.607Z,16.80
2017-08-13T23:47:23.181Z,16.80
2017-08-13T23:49:50.730Z,16.80
2017-08-13T23:52:18.313Z,16.80
2017-08-13T23:54:45.949Z,16.80
2017-08-13T23:57:13.539Z,16.80
2017-08-13T23:59:41.156Z,16.70
